sensor_id;sensor_type;location;lat;lon;timestamp;temperature;humidity
11454;DHT22;5783;55.174;61.310;2022-12-07T00:01:46;13.30;44.20
11454;DHT22;5783;55.174;61.310;2022-12-07T00:04:17;13.30;44.10
11454;DHT22;5783;55.174;61.310;2022-12-07T00:06:50;13.20;43.70
11454;DHT22;5783;55.174;61.310;2022-12-07T00:09:19;13.10;43.50
11454;DHT22;5783;55.174;61.310;2022-12-07T00:11:50;13.00;43.20
11454;DHT22;5783;55.174;61.310;2022-12-07T00:14:20;12.90;40.70
11454;DHT22;5783;55.174;61.310;2022-12-07T00:16:51;12.80;42.50
11454;DHT22;5783;55.174;61.310;2022-12-07T00:19:22;12.70;44.00
11454;DHT22;5783;55.174;61.310;2022-12-07T00:21:51;12.80;43.80
11454;DHT22;5783;55.174;61.310;2022-12-07T00:24:20;12.90;43.90
11454;DHT22;5783;55.174;61.310;2022-12-07T00:26:50;12.90;43.20
11454;DHT22;5783;55.174;61.310;2022-12-07T00:29:21;12.90;43.40
11454;DHT22;5783;55.174;61.310;2022-12-07T00:31:50;12.80;43.40
11454;DHT22;5783;55.174;61.310;2022-12-07T00:34:20;12.70;43.70
11454;DHT22;5783;55.174;61.310;2022-12-07T00:36:50;12.70;44.50
11454;DHT22;5783;55.174;61.310;2022-12-07T00:39:19;12.80;44.40
11454;DHT22;5783;55.174;61.310;2022-12-07T00:41:48;12.90;44.40
11454;DHT22;5783;55.174;61.310;2022-12-07T00:44:17;13.00;43.90
11454;DHT22;5783;55.174;61.310;2022-12-07T00:46:46;13.00;43.40
11454;DHT22;5783;55.174;61.310;2022-12-07T00:49:16;13.10;43.00
11454;DHT22;5783;55.174;61.310;2022-12-07T00:51:45;13.10;42.80
11454;DHT22;5783;55.174;61.310;2022-12-07T00:54:15;13.10;42.80
11454;DHT22;5783;55.174;61.310;2022-12-07T00:56:44;13.00;42.70
11454;DHT22;5783;55.174;61.310;2022-12-07T00:59:14;13.00;42.60
11454;DHT22;5783;55.174;61.310;2022-12-07T01:01:43;13.00;42.70
11454;DHT22;5783;55.174;61.310;2022-12-07T01:04:12;13.00;42.70
11454;DHT22;5783;55.174;61.310;2022-12-07T01:06:41;13.00;42.50
11454;DHT22;5783;55.174;61.310;2022-12-07T01:09:10;13.00;42.50
11454;DHT22;5783;55.174;61.310;2022-12-07T01:11:39;12.90;42.30
11454;DHT22;5783;55.174;61.310;2022-12-07T01:14:09;12.90;42.30
11454;DHT22;5783;55.174;61.310;2022-12-07T01:16:39;12.90;42.10
11454;DHT22;5783;55.174;61.310;2022-12-07T01:19:08;12.90;42.20
11454;DHT22;5783;55.174;61.310;2022-12-07T01:21:38;12.90;42.20
11454;DHT22;5783;55.174;61.310;2022-12-07T01:24:09;12.80;42.10
11454;DHT22;5783;55.174;61.310;2022-12-07T01:26:39;12.80;41.70
11454;DHT22;5783;55.174;61.310;2022-12-07T01:29:08;12.80;41.60
11454;DHT22;5783;55.174;61.310;2022-12-07T01:31:37;12.80;41.90
11454;DHT22;5783;55.174;61.310;2022-12-07T01:34:07;12.90;41.80
11454;DHT22;5783;55.174;61.310;2022-12-07T01:36:37;12.90;41.80
11454;DHT22;5783;55.174;61.310;2022-12-07T01:39:09;12.90;41.70
11454;DHT22;5783;55.174;61.310;2022-12-07T01:41:39;12.90;41.60
11454;DHT22;5783;55.174;61.310;2022-12-07T01:47:03;12.90;41.70
11454;DHT22;5783;55.174;61.310;2022-12-07T01:53:01;12.80;41.70
11454;DHT22;5783;55.174;61.310;2022-12-07T01:58:05;12.90;41.40
11454;DHT22;5783;55.174;61.310;2022-12-07T02:00:35;12.90;35.50
11454;DHT22;5783;55.174;61.310;2022-12-07T02:03:07;12.80;41.40
11454;DHT22;5783;55.174;61.310;2022-12-07T02:05:37;12.70;41.70
11454;DHT22;5783;55.174;61.310;2022-12-07T02:08:07;12.80;32.90
11454;DHT22;5783;55.174;61.310;2022-12-07T02:10:37;12.80;36.50
11454;DHT22;5783;55.174;61.310;2022-12-07T02:13:26;12.90;41.60
11454;DHT22;5783;55.174;61.310;2022-12-07T02:31:41;12.90;41.30
11454;DHT22;5783;55.174;61.310;2022-12-07T02:36:46;12.90;41.40
11454;DHT22;5783;55.174;61.310;2022-12-07T02:39:19;13.00;38.70
11454;DHT22;5783;55.174;61.310;2022-12-07T02:41:51;13.00;27.00
11454;DHT22;5783;55.174;61.310;2022-12-07T02:44:40;13.10;27.00
11454;DHT22;5783;55.174;61.310;2022-12-07T02:47:12;13.10;27.00
11454;DHT22;5783;55.174;61.310;2022-12-07T02:49:42;13.10;28.40
11454;DHT22;5783;55.174;61.310;2022-12-07T02:52:12;13.10;26.80
11454;DHT22;5783;55.174;61.310;2022-12-07T02:54:41;13.10;26.90
11454;DHT22;5783;55.174;61.310;2022-12-07T03:00:35;13.10;26.70
11454;DHT22;5783;55.174;61.310;2022-12-07T03:11:44;12.90;26.70
11454;DHT22;5783;55.174;61.310;2022-12-07T03:14:34;12.90;26.90
11454;DHT22;5783;55.174;61.310;2022-12-07T03:17:24;12.80;39.90
11454;DHT22;5783;55.174;61.310;2022-12-07T03:19:55;12.90;40.40
11454;DHT22;5783;55.174;61.310;2022-12-07T03:22:28;12.90;41.00
11454;DHT22;5783;55.174;61.310;2022-12-07T03:25:00;12.90;40.80
11454;DHT22;5783;55.174;61.310;2022-12-07T03:30:42;12.80;40.90
11454;DHT22;5783;55.174;61.310;2022-12-07T03:39:34;12.70;41.20
11454;DHT22;5783;55.174;61.310;2022-12-07T03:42:04;12.70;42.60
11454;DHT22;5783;55.174;61.310;2022-12-07T03:44:35;12.70;41.70
11454;DHT22;5783;55.174;61.310;2022-12-07T03:56:30;12.70;31.80
11454;DHT22;5783;55.174;61.310;2022-12-07T03:59:00;12.70;39.90
11454;DHT22;5783;55.174;61.310;2022-12-07T04:01:29;12.60;43.60
11454;DHT22;5783;55.174;61.310;2022-12-07T04:03:58;12.60;42.90
11454;DHT22;5783;55.174;61.310;2022-12-07T04:06:27;12.70;36.20
11454;DHT22;5783;55.174;61.310;2022-12-07T04:08:56;12.70;41.20
11454;DHT22;5783;55.174;61.310;2022-12-07T04:11:26;13.30;42.10
11454;DHT22;5783;55.174;61.310;2022-12-07T04:13:55;12.80;37.80
11454;DHT22;5783;55.174;61.310;2022-12-07T04:19:34;12.80;27.70
11454;DHT22;5783;55.174;61.310;2022-12-07T04:22:04;12.90;27.90
11454;DHT22;5783;55.174;61.310;2022-12-07T04:24:34;12.90;29.00
11454;DHT22;5783;55.174;61.310;2022-12-07T04:27:03;12.90;30.00
11454;DHT22;5783;55.174;61.310;2022-12-07T04:29:32;12.80;30.30
11454;DHT22;5783;55.174;61.310;2022-12-07T04:32:23;12.80;41.90
11454;DHT22;5783;55.174;61.310;2022-12-07T04:34:52;12.10;42.40
11454;DHT22;5783;55.174;61.310;2022-12-07T04:37:21;12.90;32.70
11454;DHT22;5783;55.174;61.310;2022-12-07T04:39:50;12.90;28.30
11454;DHT22;5783;55.174;61.310;2022-12-07T04:42:20;13.00;24.40
11454;DHT22;5783;55.174;61.310;2022-12-07T04:44:49;13.30;23.70
11454;DHT22;5783;55.174;61.310;2022-12-07T04:47:18;13.50;29.50
11454;DHT22;5783;55.174;61.310;2022-12-07T04:49:47;13.60;39.90
11454;DHT22;5783;55.174;61.310;2022-12-07T04:52:16;13.70;37.50
11454;DHT22;5783;55.174;61.310;2022-12-07T04:54:45;13.80;32.40
11454;DHT22;5783;55.174;61.310;2022-12-07T04:57:14;13.90;32.60
11454;DHT22;5783;55.174;61.310;2022-12-07T04:59:43;13.90;32.50
11454;DHT22;5783;55.174;61.310;2022-12-07T05:02:12;13.90;32.60
11454;DHT22;5783;55.174;61.310;2022-12-07T05:04:42;14.00;32.70
11454;DHT22;5783;55.174;61.310;2022-12-07T05:07:11;13.80;29.30
11454;DHT22;5783;55.174;61.310;2022-12-07T05:09:40;13.80;31.20
11454;DHT22;5783;55.174;61.310;2022-12-07T05:12:09;13.70;31.00
11454;DHT22;5783;55.174;61.310;2022-12-07T05:14:38;13.70;30.30
11454;DHT22;5783;55.174;61.310;2022-12-07T05:17:07;13.70;30.40
11454;DHT22;5783;55.174;61.310;2022-12-07T05:19:38;13.60;30.80
11454;DHT22;5783;55.174;61.310;2022-12-07T05:22:09;13.70;31.00
11454;DHT22;5783;55.174;61.310;2022-12-07T05:24:38;13.60;30.40
11454;DHT22;5783;55.174;61.310;2022-12-07T05:27:07;13.60;30.40
11454;DHT22;5783;55.174;61.310;2022-12-07T05:29:36;13.60;29.80
11454;DHT22;5783;55.174;61.310;2022-12-07T05:32:05;13.50;29.40
11454;DHT22;5783;55.174;61.310;2022-12-07T05:34:34;13.60;29.30
11454;DHT22;5783;55.174;61.310;2022-12-07T05:37:03;13.60;29.10
11454;DHT22;5783;55.174;61.310;2022-12-07T05:39:32;13.70;28.90
11454;DHT22;5783;55.174;61.310;2022-12-07T05:42:01;13.70;27.90
11454;DHT22;5783;55.174;61.310;2022-12-07T05:44:50;13.60;27.90
11454;DHT22;5783;55.174;61.310;2022-12-07T05:47:19;13.60;28.20
11454;DHT22;5783;55.174;61.310;2022-12-07T05:49:48;13.70;28.50
11454;DHT22;5783;55.174;61.310;2022-12-07T05:52:43;13.70;28.80
11454;DHT22;5783;55.174;61.310;2022-12-07T05:55:13;13.70;29.10
11454;DHT22;5783;55.174;61.310;2022-12-07T05:57:42;13.70;28.40
11454;DHT22;5783;55.174;61.310;2022-12-07T06:00:13;13.70;28.50
11454;DHT22;5783;55.174;61.310;2022-12-07T06:02:42;13.70;28.30
11454;DHT22;5783;55.174;61.310;2022-12-07T06:05:13;13.70;27.80
11454;DHT22;5783;55.174;61.310;2022-12-07T06:07:42;13.80;28.10
11454;DHT22;5783;55.174;61.310;2022-12-07T06:10:12;13.80;28.20
11454;DHT22;5783;55.174;61.310;2022-12-07T06:12:41;13.80;28.00
11454;DHT22;5783;55.174;61.310;2022-12-07T06:15:12;13.80;27.90
11454;DHT22;5783;55.174;61.310;2022-12-07T06:17:41;13.80;27.90
11454;DHT22;5783;55.174;61.310;2022-12-07T06:20:12;13.80;27.70
11454;DHT22;5783;55.174;61.310;2022-12-07T06:22:41;13.70;27.30
11454;DHT22;5783;55.174;61.310;2022-12-07T06:25:10;13.60;27.50
11454;DHT22;5783;55.174;61.310;2022-12-07T06:27:39;13.50;21.70
11454;DHT22;5783;55.174;61.310;2022-12-07T06:30:08;13.40;22.10
11454;DHT22;5783;55.174;61.310;2022-12-07T06:32:37;13.30;22.10
11454;DHT22;5783;55.174;61.310;2022-12-07T06:35:07;13.30;21.90
11454;DHT22;5783;55.174;61.310;2022-12-07T06:37:36;13.20;26.00
11454;DHT22;5783;55.174;61.310;2022-12-07T06:40:06;13.20;24.10
11454;DHT22;5783;55.174;61.310;2022-12-07T06:42:36;13.20;22.20
11454;DHT22;5783;55.174;61.310;2022-12-07T06:45:05;12.50;22.00
11454;DHT22;5783;55.174;61.310;2022-12-07T06:47:34;13.30;23.80
11454;DHT22;5783;55.174;61.310;2022-12-07T06:50:04;13.30;25.50
11454;DHT22;5783;55.174;61.310;2022-12-07T06:52:34;13.40;23.10
11454;DHT22;5783;55.174;61.310;2022-12-07T06:55:03;13.30;22.70
11454;DHT22;5783;55.174;61.310;2022-12-07T06:57:32;13.30;23.20
11454;DHT22;5783;55.174;61.310;2022-12-07T07:00:02;13.20;22.30
11454;DHT22;5783;55.174;61.310;2022-12-07T07:02:32;13.00;23.50
11454;DHT22;5783;55.174;61.310;2022-12-07T07:05:02;13.70;22.70
11454;DHT22;5783;55.174;61.310;2022-12-07T07:07:31;12.70;24.40
11454;DHT22;5783;55.174;61.310;2022-12-07T07:10:00;13.40;22.70
11454;DHT22;5783;55.174;61.310;2022-12-07T07:12:31;13.40;24.00
11454;DHT22;5783;55.174;61.310;2022-12-07T07:15:00;13.40;26.50
11454;DHT22;5783;55.174;61.310;2022-12-07T07:17:31;13.40;23.70
11454;DHT22;5783;55.174;61.310;2022-12-07T07:20:00;13.40;26.40
11454;DHT22;5783;55.174;61.310;2022-12-07T07:22:30;13.50;27.00
11454;DHT22;5783;55.174;61.310;2022-12-07T07:25:00;13.50;26.10
11454;DHT22;5783;55.174;61.310;2022-12-07T07:27:29;13.40;26.90
11454;DHT22;5783;55.174;61.310;2022-12-07T07:29:58;13.30;23.20
11454;DHT22;5783;55.174;61.310;2022-12-07T07:32:28;13.70;24.60
11454;DHT22;5783;55.174;61.310;2022-12-07T07:34:57;12.90;22.20
11454;DHT22;5783;55.174;61.310;2022-12-07T07:37:26;12.70;22.30
11454;DHT22;5783;55.174;61.310;2022-12-07T07:39:55;12.60;22.30
11454;DHT22;5783;55.174;61.310;2022-12-07T07:42:24;12.50;23.60
11454;DHT22;5783;55.174;61.310;2022-12-07T07:44:54;12.40;22.50
11454;DHT22;5783;55.174;61.310;2022-12-07T07:47:24;12.40;22.70
11454;DHT22;5783;55.174;61.310;2022-12-07T07:49:53;12.40;23.00
11454;DHT22;5783;55.174;61.310;2022-12-07T07:52:22;12.40;23.00
11454;DHT22;5783;55.174;61.310;2022-12-07T07:54:51;12.40;23.00
11454;DHT22;5783;55.174;61.310;2022-12-07T07:57:20;12.40;23.10
11454;DHT22;5783;55.174;61.310;2022-12-07T07:59:49;12.50;22.80
11454;DHT22;5783;55.174;61.310;2022-12-07T08:02:19;12.40;22.70
11454;DHT22;5783;55.174;61.310;2022-12-07T08:04:49;12.40;22.60
11454;DHT22;5783;55.174;61.310;2022-12-07T08:07:18;12.30;22.60
11454;DHT22;5783;55.174;61.310;2022-12-07T08:09:47;12.30;22.60
11454;DHT22;5783;55.174;61.310;2022-12-07T08:12:16;12.30;22.80
11454;DHT22;5783;55.174;61.310;2022-12-07T08:14:45;12.40;22.90
11454;DHT22;5783;55.174;61.310;2022-12-07T08:17:14;12.40;22.80
11454;DHT22;5783;55.174;61.310;2022-12-07T08:19:43;12.50;22.70
11454;DHT22;5783;55.174;61.310;2022-12-07T08:22:12;12.50;22.70
11454;DHT22;5783;55.174;61.310;2022-12-07T08:24:42;12.40;22.60
11454;DHT22;5783;55.174;61.310;2022-12-07T08:27:11;12.40;22.60
11454;DHT22;5783;55.174;61.310;2022-12-07T08:29:40;12.40;22.70
11454;DHT22;5783;55.174;61.310;2022-12-07T08:32:10;12.30;22.70
11454;DHT22;5783;55.174;61.310;2022-12-07T08:34:39;12.30;22.80
11454;DHT22;5783;55.174;61.310;2022-12-07T08:37:08;12.40;22.90
11454;DHT22;5783;55.174;61.310;2022-12-07T08:39:38;12.40;23.60
11454;DHT22;5783;55.174;61.310;2022-12-07T08:42:07;12.40;23.60
11454;DHT22;5783;55.174;61.310;2022-12-07T08:44:36;12.50;23.70
11454;DHT22;5783;55.174;61.310;2022-12-07T08:47:08;12.50;23.30
11454;DHT22;5783;55.174;61.310;2022-12-07T08:49:41;12.50;23.10
11454;DHT22;5783;55.174;61.310;2022-12-07T08:52:11;12.50;23.50
11454;DHT22;5783;55.174;61.310;2022-12-07T08:54:41;12.50;23.60
11454;DHT22;5783;55.174;61.310;2022-12-07T08:57:11;12.50;23.70
11454;DHT22;5783;55.174;61.310;2022-12-07T08:59:40;12.50;24.00
11454;DHT22;5783;55.174;61.310;2022-12-07T09:02:09;12.40;23.90
11454;DHT22;5783;55.174;61.310;2022-12-07T09:04:38;12.40;23.90
11454;DHT22;5783;55.174;61.310;2022-12-07T09:07:07;12.40;24.20
11454;DHT22;5783;55.174;61.310;2022-12-07T09:09:36;12.40;24.00
11454;DHT22;5783;55.174;61.310;2022-12-07T09:12:05;12.40;23.90
11454;DHT22;5783;55.174;61.310;2022-12-07T09:14:35;12.40;23.70
11454;DHT22;5783;55.174;61.310;2022-12-07T09:17:24;12.40;24.30
11454;DHT22;5783;55.174;61.310;2022-12-07T09:19:53;12.40;24.40
11454;DHT22;5783;55.174;61.310;2022-12-07T09:22:22;12.50;24.10
11454;DHT22;5783;55.174;61.310;2022-12-07T09:24:51;12.60;23.80
11454;DHT22;5783;55.174;61.310;2022-12-07T09:27:20;12.50;23.70
11454;DHT22;5783;55.174;61.310;2022-12-07T09:29:49;12.50;23.40
11454;DHT22;5783;55.174;61.310;2022-12-07T09:32:18;12.50;23.70
11454;DHT22;5783;55.174;61.310;2022-12-07T09:34:48;12.50;23.60
11454;DHT22;5783;55.174;61.310;2022-12-07T09:37:17;12.60;23.70
11454;DHT22;5783;55.174;61.310;2022-12-07T09:39:46;12.60;24.00
11454;DHT22;5783;55.174;61.310;2022-12-07T09:45:27;12.70;23.60
11454;DHT22;5783;55.174;61.310;2022-12-07T09:51:32;12.60;23.20
11454;DHT22;5783;55.174;61.310;2022-12-07T09:54:02;12.50;23.10
11454;DHT22;5783;55.174;61.310;2022-12-07T09:56:31;12.40;23.10
11454;DHT22;5783;55.174;61.310;2022-12-07T09:59:02;12.40;23.40
11454;DHT22;5783;55.174;61.310;2022-12-07T10:01:33;12.40;23.30
11454;DHT22;5783;55.174;61.310;2022-12-07T10:06:53;12.40;23.20
11454;DHT22;5783;55.174;61.310;2022-12-07T10:09:22;12.50;23.30
11454;DHT22;5783;55.174;61.310;2022-12-07T10:12:12;12.50;23.30
11454;DHT22;5783;55.174;61.310;2022-12-07T10:17:53;12.60;25.10
11454;DHT22;5783;55.174;61.310;2022-12-07T10:20:44;12.70;24.80
11454;DHT22;5783;55.174;61.310;2022-12-07T10:23:33;12.70;24.20
11454;DHT22;5783;55.174;61.310;2022-12-07T10:35:29;12.80;23.30
11454;DHT22;5783;55.174;61.310;2022-12-07T10:38:00;12.80;23.30
11454;DHT22;5783;55.174;61.310;2022-12-07T10:40:48;12.80;23.50
11454;DHT22;5783;55.174;61.310;2022-12-07T10:43:19;12.80;24.00
11454;DHT22;5783;55.174;61.310;2022-12-07T11:04:07;12.80;27.30
11454;DHT22;5783;55.174;61.310;2022-12-07T11:18:34;12.90;27.70
11454;DHT22;5783;55.174;61.310;2022-12-07T11:30:29;13.00;45.30
11454;DHT22;5783;55.174;61.310;2022-12-07T11:33:19;13.00;45.20
11454;DHT22;5783;55.174;61.310;2022-12-07T11:41:49;13.00;45.90
11454;DHT22;5783;55.174;61.310;2022-12-07T11:47:30;12.90;45.00
11454;DHT22;5783;55.174;61.310;2022-12-07T11:53:26;12.80;43.80
11454;DHT22;5783;55.174;61.310;2022-12-07T12:07:03;12.60;42.50
11454;DHT22;5783;55.174;61.310;2022-12-07T12:21:30;12.40;24.20
11454;DHT22;5783;55.174;61.310;2022-12-07T12:27:14;12.40;23.90
11454;DHT22;5783;55.174;61.310;2022-12-07T12:29:41;12.40;24.60
11454;DHT22;5783;55.174;61.310;2022-12-07T12:35:38;12.50;24.30
11454;DHT22;5783;55.174;61.310;2022-12-07T12:45:02;12.70;25.00
11454;DHT22;5783;55.174;61.310;2022-12-07T12:50:42;12.80;24.60
11454;DHT22;5783;55.174;61.310;2022-12-07T12:53:31;12.80;24.70
11454;DHT22;5783;55.174;61.310;2022-12-07T12:56:23;12.80;25.00
11454;DHT22;5783;55.174;61.310;2022-12-07T12:59:16;12.80;24.80
11454;DHT22;5783;55.174;61.310;2022-12-07T13:01:42;12.70;24.70
11454;DHT22;5783;55.174;61.310;2022-12-07T13:07:03;12.70;24.80
11454;DHT22;5783;55.174;61.310;2022-12-07T13:09:34;12.70;25.20
11454;DHT22;5783;55.174;61.310;2022-12-07T13:12:23;12.70;25.40
11454;DHT22;5783;55.174;61.310;2022-12-07T13:20:53;12.80;25.10
11454;DHT22;5783;55.174;61.310;2022-12-07T13:29:21;12.70;24.90
11454;DHT22;5783;55.174;61.310;2022-12-07T13:32:17;12.70;24.70
11454;DHT22;5783;55.174;61.310;2022-12-07T13:34:41;12.70;24.50
11454;DHT22;5783;55.174;61.310;2022-12-07T13:40:35;12.70;24.70
11454;DHT22;5783;55.174;61.310;2022-12-07T13:42:34;12.60;24.60
11454;DHT22;5783;55.174;61.310;2022-12-07T13:45:25;12.60;25.00
11454;DHT22;5783;55.174;61.310;2022-12-07T13:51:04;12.70;24.90
11454;DHT22;5783;55.174;61.310;2022-12-07T13:53:33;12.60;24.60
11454;DHT22;5783;55.174;61.310;2022-12-07T13:56:03;12.60;24.50
11454;DHT22;5783;55.174;61.310;2022-12-07T13:58:33;12.60;24.70
11454;DHT22;5783;55.174;61.310;2022-12-07T14:01:02;12.60;24.60
11454;DHT22;5783;55.174;61.310;2022-12-07T14:03:34;12.60;24.60
11454;DHT22;5783;55.174;61.310;2022-12-07T14:06:23;12.60;24.40
11454;DHT22;5783;55.174;61.310;2022-12-07T14:12:05;12.50;24.10
11454;DHT22;5783;55.174;61.310;2022-12-07T14:14:33;12.60;24.10
11454;DHT22;5783;55.174;61.310;2022-12-07T14:17:23;12.50;24.00
11454;DHT22;5783;55.174;61.310;2022-12-07T14:23:00;12.60;23.90
11454;DHT22;5783;55.174;61.310;2022-12-07T14:25:32;12.60;23.90
11454;DHT22;5783;55.174;61.310;2022-12-07T14:28:02;12.60;24.00
11454;DHT22;5783;55.174;61.310;2022-12-07T14:30:33;12.60;24.00
11454;DHT22;5783;55.174;61.310;2022-12-07T14:33:05;12.70;24.20
11454;DHT22;5783;55.174;61.310;2022-12-07T14:35:37;12.70;24.10
11454;DHT22;5783;55.174;61.310;2022-12-07T14:38:08;12.70;24.20
11454;DHT22;5783;55.174;61.310;2022-12-07T14:40:38;12.70;24.20
11454;DHT22;5783;55.174;61.310;2022-12-07T14:43:27;12.70;25.60
11454;DHT22;5783;55.174;61.310;2022-12-07T14:45:56;12.70;25.70
11454;DHT22;5783;55.174;61.310;2022-12-07T14:48:25;12.50;25.60
11454;DHT22;5783;55.174;61.310;2022-12-07T14:50:54;12.30;24.70
11454;DHT22;5783;55.174;61.310;2022-12-07T14:53:27;12.20;23.90
11454;DHT22;5783;55.174;61.310;2022-12-07T14:55:56;12.00;24.00
11454;DHT22;5783;55.174;61.310;2022-12-07T14:58:25;11.80;41.40
11454;DHT22;5783;55.174;61.310;2022-12-07T15:00:54;11.60;46.00
11454;DHT22;5783;55.174;61.310;2022-12-07T15:03:23;11.50;46.60
11454;DHT22;5783;55.174;61.310;2022-12-07T15:05:52;11.40;47.80
11454;DHT22;5783;55.174;61.310;2022-12-07T15:08:21;11.30;47.80
11454;DHT22;5783;55.174;61.310;2022-12-07T15:10:50;11.20;50.50
11454;DHT22;5783;55.174;61.310;2022-12-07T15:13:19;11.20;54.60
11454;DHT22;5783;55.174;61.310;2022-12-07T15:18:58;11.20;55.10
11454;DHT22;5783;55.174;61.310;2022-12-07T15:21:27;11.20;54.60
11454;DHT22;5783;55.174;61.310;2022-12-07T15:23:56;11.30;54.50
11454;DHT22;5783;55.174;61.310;2022-12-07T15:26:25;11.30;53.80
11454;DHT22;5783;55.174;61.310;2022-12-07T15:28:54;11.30;53.10
11454;DHT22;5783;55.174;61.310;2022-12-07T15:31:23;11.40;51.50
11454;DHT22;5783;55.174;61.310;2022-12-07T15:33:52;11.40;51.00
11454;DHT22;5783;55.174;61.310;2022-12-07T15:36:24;11.50;50.90
11454;DHT22;5783;55.174;61.310;2022-12-07T15:38:53;11.50;50.70
11454;DHT22;5783;55.174;61.310;2022-12-07T15:41:23;11.50;50.20
11454;DHT22;5783;55.174;61.310;2022-12-07T15:43:54;11.50;50.30
11454;DHT22;5783;55.174;61.310;2022-12-07T15:46:42;11.50;51.30
11454;DHT22;5783;55.174;61.310;2022-12-07T15:49:14;11.60;51.40
11454;DHT22;5783;55.174;61.310;2022-12-07T15:51:44;11.60;51.60
11454;DHT22;5783;55.174;61.310;2022-12-07T15:57:04;11.50;51.40
11454;DHT22;5783;55.174;61.310;2022-12-07T15:59:33;11.50;51.30
11454;DHT22;5783;55.174;61.310;2022-12-07T16:02:02;11.50;51.30
11454;DHT22;5783;55.174;61.310;2022-12-07T16:04:31;11.60;51.80
11454;DHT22;5783;55.174;61.310;2022-12-07T16:07:00;11.60;52.00
11454;DHT22;5783;55.174;61.310;2022-12-07T16:09:29;11.60;53.00
11454;DHT22;5783;55.174;61.310;2022-12-07T16:11:59;11.60;53.30
11454;DHT22;5783;55.174;61.310;2022-12-07T16:14:28;11.60;53.30
11454;DHT22;5783;55.174;61.310;2022-12-07T16:16:59;11.60;53.50
11454;DHT22;5783;55.174;61.310;2022-12-07T16:19:28;11.60;54.00
11454;DHT22;5783;55.174;61.310;2022-12-07T16:21:57;11.60;54.10
11454;DHT22;5783;55.174;61.310;2022-12-07T16:24:27;11.60;54.70
11454;DHT22;5783;55.174;61.310;2022-12-07T16:26:56;11.60;56.50
11454;DHT22;5783;55.174;61.310;2022-12-07T16:29:25;11.60;57.40
11454;DHT22;5783;55.174;61.310;2022-12-07T16:31:54;11.70;56.60
11454;DHT22;5783;55.174;61.310;2022-12-07T16:34:23;11.70;55.00
11454;DHT22;5783;55.174;61.310;2022-12-07T16:36:52;11.80;54.40
11454;DHT22;5783;55.174;61.310;2022-12-07T16:39:21;11.80;55.10
11454;DHT22;5783;55.174;61.310;2022-12-07T16:41:51;11.80;55.30
11454;DHT22;5783;55.174;61.310;2022-12-07T16:44:20;11.80;55.20
11454;DHT22;5783;55.174;61.310;2022-12-07T16:46:49;11.80;55.30
11454;DHT22;5783;55.174;61.310;2022-12-07T16:49:18;11.80;55.40
11454;DHT22;5783;55.174;61.310;2022-12-07T16:54:37;11.80;55.20
11454;DHT22;5783;55.174;61.310;2022-12-07T16:57:06;11.80;54.60
11454;DHT22;5783;55.174;61.310;2022-12-07T16:59:35;11.80;54.60
11454;DHT22;5783;55.174;61.310;2022-12-07T17:02:05;11.80;54.70
11454;DHT22;5783;55.174;61.310;2022-12-07T17:04:34;11.80;54.60
11454;DHT22;5783;55.174;61.310;2022-12-07T17:07:06;11.80;54.40
11454;DHT22;5783;55.174;61.310;2022-12-07T17:09:35;11.80;54.40
11454;DHT22;5783;55.174;61.310;2022-12-07T17:12:05;11.90;54.60
11454;DHT22;5783;55.174;61.310;2022-12-07T17:14:34;11.90;55.50
11454;DHT22;5783;55.174;61.310;2022-12-07T17:17:23;11.90;58.20
11454;DHT22;5783;55.174;61.310;2022-12-07T17:19:52;11.90;58.30
11454;DHT22;5783;55.174;61.310;2022-12-07T17:22:21;11.90;58.10
11454;DHT22;5783;55.174;61.310;2022-12-07T17:24:50;11.90;58.40
11454;DHT22;5783;55.174;61.310;2022-12-07T17:27:19;12.00;58.40
11454;DHT22;5783;55.174;61.310;2022-12-07T17:29:48;11.90;57.60
11454;DHT22;5783;55.174;61.310;2022-12-07T17:32:17;11.90;57.20
11454;DHT22;5783;55.174;61.310;2022-12-07T17:34:47;11.90;56.50
11454;DHT22;5783;55.174;61.310;2022-12-07T17:40:05;11.80;56.10
11454;DHT22;5783;55.174;61.310;2022-12-07T17:42:34;11.80;55.40
11454;DHT22;5783;55.174;61.310;2022-12-07T17:45:08;11.80;55.00
11454;DHT22;5783;55.174;61.310;2022-12-07T17:47:38;11.70;55.00
11454;DHT22;5783;55.174;61.310;2022-12-07T17:50:08;11.70;54.50
11454;DHT22;5783;55.174;61.310;2022-12-07T17:52:39;11.70;54.60
11454;DHT22;5783;55.174;61.310;2022-12-07T17:55:27;11.80;54.20
11454;DHT22;5783;55.174;61.310;2022-12-07T17:57:56;11.80;54.20
11454;DHT22;5783;55.174;61.310;2022-12-07T18:00:26;11.80;53.80
11454;DHT22;5783;55.174;61.310;2022-12-07T18:02:55;11.80;53.90
11454;DHT22;5783;55.174;61.310;2022-12-07T18:05:24;11.80;53.20
11454;DHT22;5783;55.174;61.310;2022-12-07T18:07:53;11.70;53.30
11454;DHT22;5783;55.174;61.310;2022-12-07T18:10:23;11.70;53.60
11454;DHT22;5783;55.174;61.310;2022-12-07T18:12:52;11.70;53.40
11454;DHT22;5783;55.174;61.310;2022-12-07T18:15:22;11.70;53.10
11454;DHT22;5783;55.174;61.310;2022-12-07T18:17:51;11.70;52.90
11454;DHT22;5783;55.174;61.310;2022-12-07T18:20:21;11.70;52.90
11454;DHT22;5783;55.174;61.310;2022-12-07T18:22:50;11.70;52.50
11454;DHT22;5783;55.174;61.310;2022-12-07T18:25:19;11.70;52.20
11454;DHT22;5783;55.174;61.310;2022-12-07T18:27:48;11.70;51.90
11454;DHT22;5783;55.174;61.310;2022-12-07T18:30:17;11.70;51.70
11454;DHT22;5783;55.174;61.310;2022-12-07T18:32:46;11.70;51.60
11454;DHT22;5783;55.174;61.310;2022-12-07T18:35:15;11.70;51.60
11454;DHT22;5783;55.174;61.310;2022-12-07T18:37:45;11.70;51.90
11454;DHT22;5783;55.174;61.310;2022-12-07T18:40:14;11.80;51.70
11454;DHT22;5783;55.174;61.310;2022-12-07T18:42:43;11.70;51.90
11454;DHT22;5783;55.174;61.310;2022-12-07T18:45:12;11.80;51.50
11454;DHT22;5783;55.174;61.310;2022-12-07T18:47:41;11.80;51.20
11454;DHT22;5783;55.174;61.310;2022-12-07T18:50:10;11.70;51.00
11454;DHT22;5783;55.174;61.310;2022-12-07T18:52:41;11.60;50.90
11454;DHT22;5783;55.174;61.310;2022-12-07T18:55:11;11.60;50.30
11454;DHT22;5783;55.174;61.310;2022-12-07T18:57:40;11.60;50.00
11454;DHT22;5783;55.174;61.310;2022-12-07T19:00:10;11.60;50.00
11454;DHT22;5783;55.174;61.310;2022-12-07T19:02:39;11.60;50.00
11454;DHT22;5783;55.174;61.310;2022-12-07T19:05:08;11.60;50.00
11454;DHT22;5783;55.174;61.310;2022-12-07T19:07:57;11.60;49.80
11454;DHT22;5783;55.174;61.310;2022-12-07T19:10:26;11.60;49.90
11454;DHT22;5783;55.174;61.310;2022-12-07T19:12:55;11.60;49.30
11454;DHT22;5783;55.174;61.310;2022-12-07T19:15:24;11.60;49.30
11454;DHT22;5783;55.174;61.310;2022-12-07T19:17:53;11.60;49.40
11454;DHT22;5783;55.174;61.310;2022-12-07T19:20:23;11.60;49.50
11454;DHT22;5783;55.174;61.310;2022-12-07T19:22:52;11.60;49.60
11454;DHT22;5783;55.174;61.310;2022-12-07T19:25:21;11.70;49.60
11454;DHT22;5783;55.174;61.310;2022-12-07T19:27:50;11.70;49.50